createdAt,value
2019-04-04T00:00:14.347Z,7.50
2019-04-04T00:01:27.126Z,7.50
2019-04-04T00:02:30.722Z,7.40
2019-04-04T00:03:34.300Z,7.40
2019-04-04T00:04:37.911Z,7.40
2019-04-04T00:05:41.500Z,7.30
2019-04-04T00:06:45.141Z,7.30
2019-04-04T00:07:48.747Z,7.40
2019-04-04T00:08:52.399Z,7.40
2019-04-04T00:09:55.993Z,7.30
2019-04-04T00:10:59.682Z,7.30
2019-04-04T00:12:03.291Z,7.30
2019-04-04T00:13:06.951Z,7.40
2019-04-04T00:14:12.674Z,7.40
2019-04-04T00:15:15.844Z,7.40
2019-04-04T00:16:19.441Z,7.40
2019-04-04T00:17:23.759Z,7.50
2019-04-04T00:18:28.001Z,7.50
2019-04-04T00:19:31.723Z,7.50
2019-04-04T00:20:35.379Z,7.50
2019-04-04T00:21:38.971Z,7.60
2019-04-04T00:22:42.563Z,7.60
2019-04-04T00:23:46.159Z,7.60
2019-04-04T00:24:49.790Z,7.70
2019-04-04T00:25:53.396Z,7.60
2019-04-04T00:26:57.089Z,7.60
2019-04-04T00:28:00.690Z,7.60
2019-04-04T00:29:04.451Z,7.50
2019-04-04T00:30:08.400Z,7.50
2019-04-04T00:31:11.987Z,7.50
2019-04-04T00:32:15.616Z,7.50
2019-04-04T00:33:19.289Z,7.50
2019-04-04T00:34:22.918Z,7.40
2019-04-04T00:35:26.541Z,7.40
2019-04-04T00:36:30.133Z,7.50
2019-04-04T00:37:34.473Z,7.40
2019-04-04T00:38:39.015Z,7.40
2019-04-04T00:39:42.618Z,7.30
2019-04-04T00:40:46.245Z,7.30
2019-04-04T00:41:49.854Z,7.20
2019-04-04T00:42:53.441Z,7.20
2019-04-04T00:43:57.052Z,7.20
2019-04-04T00:45:00.652Z,7.10
2019-04-04T00:46:04.363Z,7.10
2019-04-04T00:47:07.950Z,7.00
2019-04-04T00:48:11.550Z,7.00
2019-04-04T00:49:15.143Z,7.00
2019-04-04T00:50:18.736Z,7.00
2019-04-04T00:51:22.362Z,7.00
2019-04-04T00:52:26.012Z,6.90
2019-04-04T00:53:29.607Z,6.90
2019-04-04T00:54:33.280Z,6.90
2019-04-04T00:55:36.892Z,6.90
2019-04-04T00:56:40.498Z,7.00
2019-04-04T00:57:44.146Z,7.00
2019-04-04T00:58:47.761Z,6.90
2019-04-04T00:59:53.319Z,6.90
2019-04-04T01:00:56.686Z,6.90
2019-04-04T01:02:00.292Z,6.80
2019-04-04T01:03:04.019Z,6.80
2019-04-04T01:04:07.611Z,6.90
2019-04-04T01:05:11.202Z,6.90
2019-04-04T01:06:14.806Z,6.90
2019-04-04T01:07:18.388Z,6.90
2019-04-04T01:08:22.021Z,6.90
2019-04-04T01:09:25.651Z,6.90
2019-04-04T01:10:29.237Z,6.90
2019-04-04T01:11:32.877Z,6.90
2019-04-04T01:12:36.477Z,6.80
2019-04-04T01:13:40.097Z,6.80
2019-04-04T01:14:43.747Z,6.80
2019-04-04T01:15:47.344Z,6.80
2019-04-04T01:16:50.983Z,6.80
2019-04-04T01:17:54.581Z,6.70
2019-04-04T01:18:58.210Z,6.80
2019-04-04T01:20:01.811Z,6.70
2019-04-04T01:21:05.470Z,6.70
2019-04-04T01:22:09.111Z,6.70
2019-04-04T01:23:12.719Z,6.70
2019-04-04T01:24:16.352Z,6.80
2019-04-04T01:25:19.933Z,6.80
2019-04-04T01:26:23.525Z,6.80
2019-04-04T01:27:27.182Z,6.90
2019-04-04T01:28:30.827Z,6.90
2019-04-04T01:29:34.469Z,6.90
2019-04-04T01:30:38.129Z,6.90
2019-04-04T01:31:41.744Z,7.00
2019-04-04T01:32:46.259Z,7.00
2019-04-04T01:33:51.574Z,7.00
2019-04-04T01:34:55.419Z,7.00
2019-04-04T01:35:59.023Z,7.00
2019-04-04T01:37:02.612Z,7.10
2019-04-04T01:38:06.509Z,7.00
2019-04-04T01:39:10.454Z,7.10
2019-04-04T01:40:14.491Z,7.00
2019-04-04T01:41:18.133Z,7.10
2019-04-04T01:42:21.696Z,7.00
2019-04-04T01:43:25.331Z,7.10
2019-04-04T01:44:28.927Z,7.10
2019-04-04T01:45:32.596Z,7.20
2019-04-04T01:46:36.191Z,7.20
2019-04-04T01:47:39.844Z,7.20
2019-04-04T01:48:43.450Z,7.30
2019-04-04T01:49:47.169Z,7.30
2019-04-04T01:50:53.390Z,7.20
2019-04-04T01:51:57.683Z,7.20
2019-04-04T01:53:01.194Z,7.30
2019-04-04T01:54:04.799Z,7.30
2019-04-04T01:55:08.508Z,7.30
2019-04-04T01:56:12.163Z,7.40
2019-04-04T01:57:15.761Z,7.40
2019-04-04T01:58:19.353Z,7.50
2019-04-04T01:59:23.010Z,7.40
2019-04-04T02:00:26.635Z,7.40
2019-04-04T02:01:30.235Z,7.40
2019-04-04T02:02:33.814Z,7.50
2019-04-04T02:03:37.464Z,7.40
2019-04-04T02:04:41.067Z,7.40
2019-04-04T02:05:44.684Z,7.40
2019-04-04T02:06:48.308Z,7.40
2019-04-04T02:07:51.913Z,7.40
2019-04-04T02:08:55.557Z,7.50
2019-04-04T02:09:59.149Z,7.40
2019-04-04T02:11:05.274Z,7.50
2019-04-04T02:12:08.590Z,7.50
2019-04-04T02:13:12.301Z,7.50
2019-04-04T02:14:15.898Z,7.50
2019-04-04T02:15:19.561Z,7.50
2019-04-04T02:16:23.212Z,7.60
2019-04-04T02:17:26.793Z,7.60
2019-04-04T02:18:30.401Z,7.60
2019-04-04T02:19:34.006Z,7.60
2019-04-04T02:20:37.605Z,7.60
2019-04-04T02:21:41.247Z,7.50
2019-04-04T02:22:44.860Z,7.50
2019-04-04T02:23:48.478Z,7.50
2019-04-04T02:24:52.073Z,7.50
2019-04-04T02:25:55.671Z,7.50
2019-04-04T02:26:59.331Z,7.60
2019-04-04T02:28:02.934Z,7.60
2019-04-04T02:29:06.535Z,7.60
2019-04-04T02:30:14.879Z,7.70
2019-04-04T02:31:16.097Z,7.70
2019-04-04T02:32:26.112Z,7.70
2019-04-04T02:33:26.623Z,7.70
2019-04-04T02:34:30.227Z,7.70
2019-04-04T02:35:33.821Z,7.70
2019-04-04T02:36:37.520Z,7.80
2019-04-04T02:37:41.141Z,7.80
2019-04-04T02:38:47.820Z,7.80
2019-04-04T02:39:51.428Z,7.90
2019-04-04T02:40:55.030Z,7.90
2019-04-04T02:41:58.626Z,7.80
2019-04-04T02:43:02.289Z,7.90
2019-04-04T02:44:06.206Z,7.80
2019-04-04T02:45:09.951Z,7.80
2019-04-04T02:46:13.646Z,7.80
2019-04-04T02:47:18.188Z,7.80
2019-04-04T02:48:24.557Z,7.70
2019-04-04T02:49:29.310Z,7.70
2019-04-04T02:50:35.661Z,7.70
2019-04-04T02:51:41.207Z,7.70
2019-04-04T02:52:45.718Z,7.70
2019-04-04T02:53:51.823Z,7.70
2019-04-04T02:54:57.202Z,7.80
2019-04-04T02:56:02.305Z,7.80
2019-04-04T02:57:07.966Z,7.80
2019-04-04T02:58:13.881Z,7.70
2019-04-04T02:59:20.005Z,7.70
2019-04-04T03:00:20.195Z,7.60
2019-04-04T03:01:23.791Z,7.60
2019-04-04T03:02:27.428Z,7.60
2019-04-04T03:03:31.086Z,7.60
2019-04-04T03:04:34.727Z,7.50
2019-04-04T03:05:38.335Z,7.40
2019-04-04T03:06:41.936Z,7.40
2019-04-04T03:07:45.585Z,7.40
2019-04-04T03:08:49.251Z,7.30
2019-04-04T03:09:52.989Z,7.20
2019-04-04T03:10:56.666Z,7.20
2019-04-04T03:12:00.306Z,7.20
2019-04-04T03:13:03.960Z,7.10
2019-04-04T03:14:07.518Z,7.10
2019-04-04T03:15:11.662Z,7.20
2019-04-04T03:16:15.314Z,7.20
2019-04-04T03:17:18.917Z,7.20
2019-04-04T03:18:22.532Z,7.20
2019-04-04T03:19:26.205Z,7.20
2019-04-04T03:20:29.783Z,7.20
2019-04-04T03:21:33.395Z,7.20
2019-04-04T03:22:37.000Z,7.20
2019-04-04T03:23:40.679Z,7.30
2019-04-04T03:24:45.095Z,7.30
2019-04-04T03:25:49.014Z,7.30
2019-04-04T03:26:53.576Z,7.30
2019-04-04T03:27:58.299Z,7.30
2019-04-04T03:29:05.543Z,7.30
2019-04-04T03:30:13.132Z,7.40
2019-04-04T03:31:13.327Z,7.40
2019-04-04T03:32:17.557Z,7.50
2019-04-04T03:33:21.235Z,7.50
2019-04-04T03:34:24.898Z,7.60
2019-04-04T03:35:29.480Z,7.60
2019-04-04T03:36:33.980Z,7.60
2019-04-04T03:37:40.458Z,7.50
2019-04-04T03:38:46.091Z,7.50
2019-04-04T03:39:51.907Z,7.50
2019-04-04T03:40:57.444Z,7.60
2019-04-04T03:41:58.642Z,7.60
2019-04-04T03:43:02.272Z,7.60
2019-04-04T03:44:05.865Z,7.60
2019-04-04T03:45:09.647Z,7.70
2019-04-04T03:46:13.289Z,7.70
2019-04-04T03:47:16.940Z,7.70
2019-04-04T03:48:20.524Z,7.70
2019-04-04T03:49:24.761Z,7.70
2019-04-04T03:50:30.238Z,7.80
2019-04-04T03:51:37.124Z,7.80
2019-04-04T03:52:43.377Z,7.80
2019-04-04T03:53:48.661Z,7.70
2019-04-04T03:54:54.999Z,7.70
2019-04-04T03:55:59.936Z,7.70
2019-04-04T03:57:01.675Z,7.70
2019-04-04T03:58:05.281Z,7.70
2019-04-04T03:59:08.958Z,7.70
2019-04-04T04:00:15.869Z,7.70
2019-04-04T04:01:19.523Z,7.70
2019-04-04T04:02:23.146Z,7.80
2019-04-04T04:03:26.746Z,7.80
2019-04-04T04:04:30.358Z,7.80
2019-04-04T04:05:35.931Z,7.80
2019-04-04T04:06:42.133Z,7.80
2019-04-04T04:07:45.854Z,7.80
2019-04-04T04:08:53.627Z,7.80
2019-04-04T04:09:59.335Z,7.80
2019-04-04T04:11:04.620Z,7.90
2019-04-04T04:12:10.055Z,7.80
2019-04-04T04:13:10.910Z,7.70
2019-04-04T04:14:14.564Z,7.70
2019-04-04T04:15:18.230Z,7.70
2019-04-04T04:16:21.829Z,7.80
2019-04-04T04:17:25.438Z,7.70
2019-04-04T04:18:29.038Z,7.70
2019-04-04T04:19:32.689Z,7.70
2019-04-04T04:20:37.646Z,7.70
2019-04-04T04:21:43.229Z,7.70
2019-04-04T04:22:50.336Z,7.70
2019-04-04T04:23:56.311Z,7.70
2019-04-04T04:25:01.964Z,7.70
2019-04-04T04:26:02.526Z,7.70
2019-04-04T04:27:06.123Z,7.80
2019-04-04T04:28:09.774Z,7.80
2019-04-04T04:29:13.391Z,7.70
2019-04-04T04:30:17.112Z,7.70
2019-04-04T04:31:20.711Z,7.70
2019-04-04T04:32:24.329Z,7.70
2019-04-04T04:33:29.371Z,7.70
2019-04-04T04:34:34.247Z,7.70
2019-04-04T04:35:41.177Z,7.70
2019-04-04T04:36:43.220Z,7.70
2019-04-04T04:37:46.826Z,7.70
2019-04-04T04:38:50.483Z,7.70
2019-04-04T04:39:54.097Z,7.70
2019-04-04T04:40:57.730Z,7.70
2019-04-04T04:42:01.351Z,7.70
2019-04-04T04:43:05.023Z,7.70
2019-04-04T04:44:08.632Z,7.70
2019-04-04T04:45:12.647Z,7.70
2019-04-04T04:46:17.879Z,7.60
2019-04-04T04:47:23.859Z,7.50
2019-04-04T04:48:30.701Z,7.50
2019-04-04T04:49:35.301Z,7.50
2019-04-04T04:50:40.014Z,7.40
2019-04-04T04:51:44.148Z,7.40
2019-04-04T04:52:48.154Z,7.30
2019-04-04T04:53:51.771Z,7.20
2019-04-04T04:54:55.543Z,7.20
2019-04-04T04:56:00.487Z,7.20
2019-04-04T04:57:05.022Z,7.30
2019-04-04T04:58:10.248Z,7.30
2019-04-04T04:59:14.077Z,7.30
2019-04-04T05:00:17.810Z,7.20
2019-04-04T05:01:21.431Z,7.30
2019-04-04T05:02:25.090Z,7.30
2019-04-04T05:03:28.687Z,7.20
2019-04-04T05:04:32.294Z,7.20
2019-04-04T05:05:35.893Z,7.30
2019-04-04T05:06:39.492Z,7.30
2019-04-04T05:07:43.140Z,7.40
2019-04-04T05:08:46.732Z,7.40
2019-04-04T05:09:50.360Z,7.50
2019-04-04T05:10:53.971Z,7.50
2019-04-04T05:11:57.577Z,7.50
2019-04-04T05:13:01.235Z,7.50
2019-04-04T05:14:04.949Z,7.50
2019-04-04T05:15:08.880Z,7.50
2019-04-04T05:16:12.484Z,7.50
2019-04-04T05:17:16.086Z,7.50
2019-04-04T05:18:19.690Z,7.60
2019-04-04T05:19:23.334Z,7.70
2019-04-04T05:20:29.816Z,7.70
2019-04-04T05:21:34.562Z,7.80
2019-04-04T05:22:39.793Z,7.80
2019-04-04T05:23:42.807Z,7.80
2019-04-04T05:24:47.312Z,7.80
2019-04-04T05:25:54.120Z,7.90
2019-04-04T05:26:57.032Z,7.90
2019-04-04T05:28:00.655Z,7.80
2019-04-04T05:29:04.430Z,7.70
2019-04-04T05:30:08.720Z,7.70
2019-04-04T05:31:12.463Z,7.70
2019-04-04T05:32:16.178Z,7.60
2019-04-04T05:33:22.721Z,7.60
2019-04-04T05:34:25.115Z,7.60
2019-04-04T05:35:28.724Z,7.70
2019-04-04T05:36:32.342Z,7.60
2019-04-04T05:37:38.278Z,7.70
2019-04-04T05:38:42.893Z,7.70
2019-04-04T05:39:51.023Z,7.70
2019-04-04T05:40:53.262Z,7.80
2019-04-04T05:42:00.372Z,7.80
2019-04-04T05:43:04.204Z,7.80
2019-04-04T05:44:09.976Z,7.80
2019-04-04T05:45:14.447Z,7.80
2019-04-04T05:46:19.127Z,7.80
2019-04-04T05:47:23.932Z,7.70
2019-04-04T05:48:29.200Z,7.70
2019-04-04T05:49:32.873Z,7.60
2019-04-04T05:50:36.527Z,7.70
2019-04-04T05:51:40.140Z,7.70
2019-04-04T05:52:44.076Z,7.60
2019-04-04T05:53:47.685Z,7.50
2019-04-04T05:54:51.292Z,7.40
2019-04-04T05:55:54.933Z,7.40
2019-04-04T05:56:58.554Z,7.30
2019-04-04T05:58:02.159Z,7.30
2019-04-04T05:59:05.838Z,7.30
2019-04-04T06:00:11.875Z,7.40
2019-04-04T06:01:17.336Z,7.50
2019-04-04T06:02:20.963Z,7.60
2019-04-04T06:03:24.576Z,7.70
2019-04-04T06:04:28.151Z,7.70
2019-04-04T06:05:32.034Z,7.70
2019-04-04T06:06:35.782Z,7.70
2019-04-04T06:07:39.380Z,7.60
2019-04-04T06:08:43.417Z,7.70
2019-04-04T06:09:47.139Z,7.70
2019-04-04T06:10:50.920Z,7.80
2019-04-04T06:11:54.958Z,7.80
2019-04-04T06:12:58.588Z,7.70
2019-04-04T06:14:02.761Z,7.60
2019-04-04T06:15:07.512Z,7.60
2019-04-04T06:16:11.163Z,7.60
2019-04-04T06:17:14.832Z,7.70
2019-04-04T06:18:18.447Z,7.70
2019-04-04T06:19:22.051Z,7.80
2019-04-04T06:20:25.776Z,7.80
2019-04-04T06:21:29.386Z,7.90
2019-04-04T06:22:33.007Z,7.80
2019-04-04T06:23:36.605Z,7.90
2019-04-04T06:24:40.339Z,7.90
2019-04-04T06:25:44.294Z,7.90
2019-04-04T06:26:47.866Z,8.00
2019-04-04T06:27:51.521Z,8.00
2019-04-04T06:28:55.140Z,8.00
2019-04-04T06:29:58.750Z,8.00
2019-04-04T06:31:02.415Z,8.00
2019-04-04T06:32:06.065Z,8.00
2019-04-04T06:33:09.851Z,8.00
2019-04-04T06:34:13.471Z,8.00
2019-04-04T06:35:17.081Z,8.10
2019-04-04T06:36:20.752Z,8.10
2019-04-04T06:37:24.404Z,8.10
2019-04-04T06:38:28.011Z,8.10
2019-04-04T06:39:31.663Z,8.00
2019-04-04T06:40:35.266Z,8.00
2019-04-04T06:41:38.882Z,8.00
2019-04-04T06:42:42.488Z,7.90
2019-04-04T06:43:46.141Z,7.90
2019-04-04T06:44:49.882Z,7.90
2019-04-04T06:45:53.509Z,7.90
2019-04-04T06:46:57.117Z,7.90
2019-04-04T06:48:00.760Z,7.80
2019-04-04T06:49:05.105Z,7.80
2019-04-04T06:50:09.123Z,7.90
2019-04-04T06:51:14.233Z,7.90
2019-04-04T06:52:18.562Z,7.80
2019-04-04T06:53:22.825Z,7.80
2019-04-04T06:54:26.507Z,7.80
2019-04-04T06:55:30.109Z,7.80
2019-04-04T06:56:33.715Z,7.90
2019-04-04T06:57:37.589Z,7.90
2019-04-04T06:58:41.269Z,8.00
2019-04-04T06:59:44.881Z,8.00
2019-04-04T07:00:49.978Z,8.10
2019-04-04T07:01:53.835Z,8.10
2019-04-04T07:02:57.444Z,8.20
2019-04-04T07:04:01.032Z,8.20
2019-04-04T07:05:06.871Z,8.20
2019-04-04T07:06:10.952Z,8.30
2019-04-04T07:07:14.552Z,8.20
2019-04-04T07:08:18.156Z,8.20
2019-04-04T07:09:21.802Z,8.20
2019-04-04T07:10:25.481Z,8.20
2019-04-04T07:11:29.084Z,8.20
2019-04-04T07:12:32.737Z,8.20
2019-04-04T07:13:42.112Z,8.20
2019-04-04T07:14:46.327Z,8.20
2019-04-04T07:16:03.282Z,8.20
2019-04-04T07:16:52.228Z,8.30
2019-04-04T07:17:55.919Z,8.30
2019-04-04T07:18:59.597Z,8.20
2019-04-04T07:20:04.534Z,8.20
2019-04-04T07:21:08.145Z,8.30
2019-04-04T07:22:11.744Z,8.40
2019-04-04T07:23:15.396Z,8.40
2019-04-04T07:24:18.992Z,8.40
2019-04-04T07:25:22.663Z,8.40
2019-04-04T07:26:26.269Z,8.40
2019-04-04T07:27:29.887Z,8.30
2019-04-04T07:28:33.496Z,8.30
2019-04-04T07:29:37.135Z,8.20
2019-04-04T07:30:40.809Z,8.20
2019-04-04T07:31:44.412Z,8.20
2019-04-04T07:32:48.017Z,8.20
2019-04-04T07:33:51.631Z,8.20
2019-04-04T07:34:55.288Z,8.20
2019-04-04T07:35:58.989Z,8.20
2019-04-04T07:37:02.593Z,8.10
2019-04-04T07:38:06.250Z,8.10
2019-04-04T07:39:12.228Z,8.00
2019-04-04T07:40:15.319Z,8.00
2019-04-04T07:41:18.913Z,8.00
2019-04-04T07:42:22.535Z,8.10
2019-04-04T07:43:26.248Z,8.10
2019-04-04T07:44:29.854Z,8.10
2019-04-04T07:45:33.469Z,8.10
2019-04-04T07:46:37.083Z,8.10
2019-04-04T07:47:40.695Z,8.00
2019-04-04T07:48:44.344Z,8.10
2019-04-04T07:49:47.954Z,8.10
2019-04-04T07:50:51.676Z,8.10
2019-04-04T07:51:55.265Z,8.10
2019-04-04T07:52:58.872Z,8.20
2019-04-04T07:54:02.484Z,8.20
2019-04-04T07:55:10.067Z,8.20
2019-04-04T07:56:14.237Z,8.20
2019-04-04T07:57:19.860Z,8.20
2019-04-04T07:58:22.905Z,8.30
2019-04-04T07:59:26.523Z,8.30
2019-04-04T08:00:30.212Z,8.30
2019-04-04T08:01:33.860Z,8.30
2019-04-04T08:02:37.469Z,8.40
2019-04-04T08:03:41.076Z,8.40
2019-04-04T08:04:44.677Z,8.50
2019-04-04T08:05:48.352Z,8.40
2019-04-04T08:06:52.011Z,8.50
2019-04-04T08:07:55.620Z,8.50
2019-04-04T08:08:59.236Z,8.60
2019-04-04T08:10:03.206Z,8.60
2019-04-04T08:11:06.812Z,8.60
2019-04-04T08:12:10.543Z,8.60
2019-04-04T08:13:14.154Z,8.60
2019-04-04T08:14:17.751Z,8.60
2019-04-04T08:15:21.435Z,8.50
2019-04-04T08:16:25.162Z,8.50
2019-04-04T08:17:28.768Z,8.50
2019-04-04T08:18:32.405Z,8.50
2019-04-04T08:19:36.025Z,8.50
2019-04-04T08:20:39.668Z,8.50
2019-04-04T08:21:43.297Z,8.60
2019-04-04T08:22:46.935Z,8.50
2019-04-04T08:23:50.539Z,8.60
2019-04-04T08:24:54.196Z,8.60
2019-04-04T08:25:57.804Z,8.60
2019-04-04T08:27:01.474Z,8.60
2019-04-04T08:28:05.079Z,8.60
2019-04-04T08:29:08.729Z,8.70
2019-04-04T08:30:12.552Z,8.70
2019-04-04T08:31:16.341Z,8.70
2019-04-04T08:32:19.993Z,8.70
2019-04-04T08:33:23.660Z,8.70
2019-04-04T08:34:27.272Z,8.70
2019-04-04T08:35:30.875Z,8.70
2019-04-04T08:36:35.882Z,8.70
2019-04-04T08:37:39.627Z,8.70
2019-04-04T08:38:43.293Z,8.70
2019-04-04T08:39:46.892Z,8.60
2019-04-04T08:40:50.508Z,8.60
2019-04-04T08:41:54.185Z,8.70
2019-04-04T08:42:57.862Z,8.50
2019-04-04T08:44:01.461Z,8.50
2019-04-04T08:45:06.809Z,8.60
2019-04-04T08:46:10.485Z,8.60
2019-04-04T08:47:14.194Z,8.60
2019-04-04T08:48:17.765Z,8.60
2019-04-04T08:49:21.358Z,8.70
2019-04-04T08:50:25.024Z,8.70
2019-04-04T08:51:28.629Z,8.70
2019-04-04T08:52:32.357Z,8.70
2019-04-04T08:53:40.343Z,8.80
2019-04-04T08:54:41.221Z,8.70
2019-04-04T08:55:44.843Z,8.80
2019-04-04T08:56:48.440Z,8.70
2019-04-04T08:57:52.111Z,8.70
2019-04-04T08:58:55.717Z,8.70
2019-04-04T08:59:59.341Z,8.70
2019-04-04T09:01:03.016Z,8.70
2019-04-04T09:02:06.751Z,8.80
2019-04-04T09:03:10.533Z,8.80
2019-04-04T09:04:14.144Z,8.80
2019-04-04T09:05:17.754Z,8.80
2019-04-04T09:06:21.364Z,8.70
2019-04-04T09:07:25.000Z,8.70
2019-04-04T09:08:28.604Z,8.60
2019-04-04T09:09:34.642Z,8.50
2019-04-04T09:10:37.578Z,8.50
2019-04-04T09:11:41.316Z,8.60
2019-04-04T09:12:44.921Z,8.60
2019-04-04T09:13:48.537Z,8.60
2019-04-04T09:14:52.286Z,8.60
2019-04-04T09:15:55.903Z,8.60
2019-04-04T09:16:59.489Z,8.60
2019-04-04T09:18:03.098Z,8.60
2019-04-04T09:19:06.763Z,8.60
2019-04-04T09:20:10.628Z,8.70
2019-04-04T09:21:14.290Z,8.70
2019-04-04T09:22:17.902Z,8.70
2019-04-04T09:23:21.518Z,8.80
2019-04-04T09:24:25.121Z,8.80
2019-04-04T09:25:28.744Z,8.80
2019-04-04T09:26:32.391Z,8.80
2019-04-04T09:27:36.187Z,8.90
2019-04-04T09:28:39.789Z,8.90
2019-04-04T09:29:43.392Z,9.00
2019-04-04T09:30:46.996Z,9.00
2019-04-04T09:31:50.586Z,9.00
2019-04-04T09:32:54.255Z,9.00
2019-04-04T09:33:57.862Z,8.90
2019-04-04T09:35:01.482Z,8.90
2019-04-04T09:36:05.300Z,8.90
2019-04-04T09:37:09.033Z,8.90
2019-04-04T09:38:12.639Z,8.90
2019-04-04T09:39:16.249Z,8.90
2019-04-04T09:40:19.921Z,8.90
2019-04-04T09:41:23.587Z,9.00
2019-04-04T09:42:27.265Z,9.00
2019-04-04T09:43:30.916Z,9.10
2019-04-04T09:44:34.526Z,9.10
2019-04-04T09:45:38.145Z,9.10
2019-04-04T09:46:41.758Z,9.10
2019-04-04T09:47:45.413Z,9.10
2019-04-04T09:48:49.024Z,9.10
2019-04-04T09:49:52.690Z,9.10
2019-04-04T09:50:56.333Z,9.20
2019-04-04T09:51:59.950Z,9.20
2019-04-04T09:53:03.695Z,9.20
2019-04-04T09:54:07.405Z,9.20
2019-04-04T09:55:11.155Z,9.20
2019-04-04T09:56:14.759Z,9.20
2019-04-04T09:57:18.380Z,9.20
2019-04-04T09:58:21.983Z,9.30
2019-04-04T09:59:25.627Z,9.20
2019-04-04T10:00:29.222Z,9.20
2019-04-04T10:01:32.813Z,9.20
2019-04-04T10:02:36.529Z,9.10
2019-04-04T10:03:40.131Z,9.10
2019-04-04T10:04:43.751Z,9.10
2019-04-04T10:05:47.367Z,9.00
2019-04-04T10:06:51.008Z,9.10
2019-04-04T10:07:54.613Z,9.20
2019-04-04T10:08:58.210Z,9.20
2019-04-04T10:10:01.878Z,9.30
2019-04-04T10:11:05.536Z,9.30
2019-04-04T10:12:09.261Z,9.30
2019-04-04T10:13:12.865Z,9.40
2019-04-04T10:14:16.510Z,9.40
2019-04-04T10:15:20.110Z,9.40
2019-04-04T10:16:23.756Z,9.40
2019-04-04T10:17:27.354Z,9.30
2019-04-04T10:18:31.014Z,9.30
2019-04-04T10:19:34.624Z,9.20
2019-04-04T10:20:38.241Z,9.20
2019-04-04T10:21:41.875Z,9.20
2019-04-04T10:22:45.478Z,9.30
2019-04-04T10:23:49.124Z,9.40
2019-04-04T10:24:52.761Z,9.40
2019-04-04T10:25:56.409Z,9.40
2019-04-04T10:27:00.135Z,9.50
2019-04-04T10:28:03.760Z,9.50
2019-04-04T10:29:07.450Z,9.50
2019-04-04T10:30:11.707Z,9.60
2019-04-04T10:31:15.328Z,9.60
2019-04-04T10:32:18.931Z,9.70
2019-04-04T10:33:22.580Z,9.70
2019-04-04T10:34:28.347Z,9.70
2019-04-04T10:35:31.469Z,9.80
2019-04-04T10:36:35.109Z,9.80
2019-04-04T10:37:38.685Z,9.90
2019-04-04T10:38:42.346Z,9.90
2019-04-04T10:39:45.972Z,9.90
2019-04-04T10:40:49.769Z,9.80
2019-04-04T10:41:53.356Z,9.80
2019-04-04T10:42:56.984Z,9.80
2019-04-04T10:44:00.638Z,9.90
2019-04-04T10:45:06.687Z,10.10
2019-04-04T10:46:10.307Z,10.20
2019-04-04T10:47:13.917Z,10.30
2019-04-04T10:48:17.530Z,10.40
2019-04-04T10:49:21.189Z,10.50
2019-04-04T10:50:24.802Z,10.50
2019-04-04T10:51:28.417Z,10.40
2019-04-04T10:52:32.245Z,10.30
2019-04-04T10:53:35.878Z,10.20
2019-04-04T10:54:39.538Z,10.10
2019-04-04T10:55:43.150Z,10.10
2019-04-04T10:56:46.760Z,10.00
2019-04-04T10:57:50.379Z,10.00
2019-04-04T10:58:53.991Z,10.00
2019-04-04T10:59:57.630Z,10.00
2019-04-04T11:01:01.241Z,10.00
2019-04-04T11:02:04.997Z,10.10
2019-04-04T11:03:08.615Z,10.00
2019-04-04T11:04:12.234Z,10.10
2019-04-04T11:05:16.237Z,10.10
2019-04-04T11:06:19.840Z,10.20
2019-04-04T11:07:23.447Z,10.30
2019-04-04T11:08:27.051Z,10.30
2019-04-04T11:09:41.453Z,10.40
2019-04-04T11:10:35.980Z,10.40
2019-04-04T11:11:39.622Z,10.40
2019-04-04T11:12:43.228Z,10.40
2019-04-04T11:13:46.830Z,10.50
2019-04-04T11:14:50.449Z,10.50
2019-04-04T11:15:54.105Z,10.60
2019-04-04T11:17:00.525Z,10.70
2019-04-04T11:18:04.136Z,10.80
2019-04-04T11:19:09.725Z,10.80
2019-04-04T11:20:13.324Z,10.70
2019-04-04T11:21:17.000Z,10.70
2019-04-04T11:22:20.637Z,10.50
2019-04-04T11:23:24.416Z,10.50
2019-04-04T11:24:28.037Z,10.50
2019-04-04T11:25:31.645Z,10.50
2019-04-04T11:26:35.300Z,10.50
2019-04-04T11:27:38.926Z,10.50
2019-04-04T11:28:42.537Z,10.60
2019-04-04T11:29:46.147Z,10.70
2019-04-04T11:30:49.759Z,10.70
2019-04-04T11:31:53.421Z,10.60
2019-04-04T11:32:57.929Z,10.60
2019-04-04T11:34:01.555Z,10.60
2019-04-04T11:35:06.525Z,10.70
2019-04-04T11:36:10.139Z,10.70
2019-04-04T11:37:13.810Z,10.80
2019-04-04T11:38:17.518Z,10.90
2019-04-04T11:39:21.137Z,11.00
2019-04-04T11:40:24.740Z,11.00
2019-04-04T11:41:28.349Z,11.20
2019-04-04T11:42:32.027Z,11.20
2019-04-04T11:43:35.648Z,11.20
2019-04-04T11:44:39.254Z,11.40
2019-04-04T11:45:42.860Z,11.40
2019-04-04T11:46:46.475Z,11.30
2019-04-04T11:47:50.134Z,11.30
2019-04-04T11:48:53.745Z,11.20
2019-04-04T11:49:57.365Z,11.10
2019-04-04T11:51:00.979Z,11.00
2019-04-04T11:52:04.721Z,11.00
2019-04-04T11:53:08.369Z,10.90
2019-04-04T11:54:11.978Z,10.90
2019-04-04T11:55:15.629Z,10.80
2019-04-04T11:56:19.254Z,10.80
2019-04-04T11:57:23.992Z,10.80
2019-04-04T11:58:27.781Z,10.70
2019-04-04T11:59:31.421Z,10.70
2019-04-04T12:00:36.757Z,10.60
2019-04-04T12:01:45.143Z,10.60
2019-04-04T12:02:48.752Z,10.50
2019-04-04T12:03:52.359Z,10.40
2019-04-04T12:04:57.797Z,10.30
2019-04-04T12:06:01.350Z,10.20
2019-04-04T12:07:05.142Z,10.20
2019-04-04T12:08:08.755Z,10.30
2019-04-04T12:09:12.385Z,10.20
2019-04-04T12:10:16.369Z,10.20
2019-04-04T12:11:22.441Z,10.20
2019-04-04T12:12:25.243Z,10.20
2019-04-04T12:13:28.907Z,10.20
2019-04-04T12:14:32.556Z,10.20
2019-04-04T12:15:36.212Z,10.20
2019-04-04T12:16:39.804Z,10.10
2019-04-04T12:17:43.415Z,10.10
2019-04-04T12:18:47.041Z,10.10
2019-04-04T12:19:50.650Z,10.10
2019-04-04T12:20:54.315Z,10.20
2019-04-04T12:21:57.932Z,10.20
2019-04-04T12:23:01.536Z,10.20
2019-04-04T12:24:05.162Z,10.20
2019-04-04T12:25:09.123Z,10.20
2019-04-04T12:26:12.777Z,10.10
2019-04-04T12:27:16.384Z,10.10
2019-04-04T12:28:19.995Z,10.10
2019-04-04T12:29:23.599Z,10.10
2019-04-04T12:30:27.219Z,10.10
2019-04-04T12:31:30.887Z,10.10
2019-04-04T12:32:34.511Z,10.20
2019-04-04T12:33:38.123Z,10.20
2019-04-04T12:34:41.736Z,10.20
2019-04-04T12:35:45.354Z,10.30
2019-04-04T12:36:49.073Z,10.30
2019-04-04T12:37:52.678Z,10.30
2019-04-04T12:38:56.286Z,10.30
2019-04-04T12:39:59.908Z,10.40
2019-04-04T12:41:03.524Z,10.40
2019-04-04T12:42:07.186Z,10.40
2019-04-04T12:43:10.812Z,10.40
2019-04-04T12:44:14.433Z,10.40
2019-04-04T12:45:18.171Z,10.40
2019-04-04T12:46:21.791Z,10.40
2019-04-04T12:47:25.457Z,10.40
2019-04-04T12:48:29.082Z,10.30
2019-04-04T12:49:32.775Z,10.40
2019-04-04T12:50:36.390Z,10.40
2019-04-04T12:51:40.008Z,10.40
2019-04-04T12:52:43.654Z,10.40
2019-04-04T12:53:47.267Z,10.50
2019-04-04T12:54:50.875Z,10.50
2019-04-04T12:55:54.493Z,10.40
2019-04-04T12:56:58.099Z,10.50
2019-04-04T12:58:01.746Z,10.50
2019-04-04T12:59:05.427Z,10.40
2019-04-04T13:00:10.281Z,10.50
2019-04-04T13:01:14.072Z,10.50
2019-04-04T13:02:17.687Z,10.50
2019-04-04T13:03:22.541Z,10.50
2019-04-04T13:04:31.651Z,10.40
2019-04-04T13:05:31.562Z,10.50
2019-04-04T13:06:35.174Z,10.50
2019-04-04T13:07:38.780Z,10.50
2019-04-04T13:08:42.383Z,10.50
2019-04-04T13:09:46.026Z,10.50
2019-04-04T13:10:49.643Z,10.50
2019-04-04T13:11:53.260Z,10.50
2019-04-04T13:12:56.878Z,10.60
2019-04-04T13:14:00.537Z,10.60
2019-04-04T13:15:06.429Z,10.50
2019-04-04T13:16:10.033Z,10.50
2019-04-04T13:17:13.696Z,10.60
2019-04-04T13:18:17.264Z,10.60
2019-04-04T13:19:20.917Z,10.70
2019-04-04T13:20:24.592Z,10.70
2019-04-04T13:21:28.267Z,10.70
2019-04-04T13:22:31.876Z,10.80
2019-04-04T13:23:35.477Z,10.80
2019-04-04T13:24:39.126Z,10.90
2019-04-04T13:25:42.741Z,10.90
2019-04-04T13:26:46.360Z,11.00
2019-04-04T13:27:49.973Z,11.00
2019-04-04T13:28:53.635Z,11.00
2019-04-04T13:29:57.313Z,11.00
2019-04-04T13:31:00.956Z,10.90
2019-04-04T13:32:04.650Z,10.90
2019-04-04T13:33:08.315Z,10.90
2019-04-04T13:34:11.946Z,10.90
2019-04-04T13:35:15.902Z,10.90
2019-04-04T13:36:19.546Z,10.80
2019-04-04T13:37:23.159Z,10.80
2019-04-04T13:38:26.763Z,10.70
2019-04-04T13:39:30.394Z,10.70
2019-04-04T13:40:44.759Z,10.70
2019-04-04T13:41:39.394Z,10.70
2019-04-04T13:42:43.022Z,10.70
2019-04-04T13:43:46.688Z,10.70
2019-04-04T13:44:50.657Z,10.70
2019-04-04T13:45:55.616Z,10.70
2019-04-04T13:47:02.737Z,10.70
2019-04-04T13:48:04.771Z,10.70
2019-04-04T13:49:08.390Z,10.70
2019-04-04T13:50:12.804Z,10.70
2019-04-04T13:51:16.588Z,10.80
2019-04-04T13:52:20.207Z,10.70
2019-04-04T13:53:25.507Z,10.60
2019-04-04T13:54:29.063Z,10.70
2019-04-04T13:55:32.763Z,10.70
2019-04-04T13:56:36.432Z,10.70
2019-04-04T13:57:40.121Z,10.60
2019-04-04T13:58:43.723Z,10.60
2019-04-04T13:59:47.350Z,10.60
2019-04-04T14:00:50.962Z,10.60
2019-04-04T14:01:54.684Z,10.70
2019-04-04T14:02:58.312Z,10.70
2019-04-04T14:04:01.960Z,10.70